sensor_id;sensor_type;location;lat;lon;timestamp;pressure;altitude;pressure_sealevel;temperature;humidity
34177;BME280;20450;49.074;9.158;2023-06-19T00:00:00;99199.97;;;23.40;54.09
34177;BME280;20450;49.074;9.158;2023-06-19T00:02:38;99210.66;;;23.55;54.35
34177;BME280;20450;49.074;9.158;2023-06-19T00:05:06;99207.81;;;23.60;54.32
34177;BME280;20450;49.074;9.158;2023-06-19T00:07:34;99205.22;;;23.63;54.81
34177;BME280;20450;49.074;9.158;2023-06-19T00:10:03;99206.66;;;23.61;53.94
34177;BME280;20450;49.074;9.158;2023-06-19T00:13:03;99202.91;;;23.57;53.81
34177;BME280;20450;49.074;9.158;2023-06-19T00:15:41;99199.44;;;23.51;55.38
34177;BME280;20450;49.074;9.158;2023-06-19T00:18:09;99200.25;;;23.52;54.25
34177;BME280;20450;49.074;9.158;2023-06-19T00:20:36;99200.88;;;23.49;54.13
34177;BME280;20450;49.074;9.158;2023-06-19T00:23:03;99206.91;;;23.51;55.60
34177;BME280;20450;49.074;9.158;2023-06-19T00:25:32;99199.44;;;23.51;55.29
34177;BME280;20450;49.074;9.158;2023-06-19T00:27:59;99203.13;;;23.47;54.82
34177;BME280;20450;49.074;9.158;2023-06-19T00:30:26;99207.22;;;23.49;54.46
34177;BME280;20450;49.074;9.158;2023-06-19T00:32:53;99207.22;;;23.49;53.99
34177;BME280;20450;49.074;9.158;2023-06-19T00:35:22;99206.28;;;23.54;53.28
34177;BME280;20450;49.074;9.158;2023-06-19T00:37:50;99201.25;;;23.56;52.91
34177;BME280;20450;49.074;9.158;2023-06-19T00:40:24;99212.03;;;23.16;52.02
34177;BME280;20450;49.074;9.158;2023-06-19T00:42:55;99212.47;;;23.24;53.06
34177;BME280;20450;49.074;9.158;2023-06-19T00:45:23;99209.28;;;23.16;51.54
34177;BME280;20450;49.074;9.158;2023-06-19T00:47:52;99208.75;;;23.01;51.97
34177;BME280;20450;49.074;9.158;2023-06-19T00:50:20;99217.00;;;22.87;51.82
34177;BME280;20450;49.074;9.158;2023-06-19T00:52:49;99214.06;;;22.84;51.59
34177;BME280;20450;49.074;9.158;2023-06-19T00:55:17;99234.38;;;23.01;51.57
34177;BME280;20450;49.074;9.158;2023-06-19T00:57:46;99225.81;;;23.16;55.08
34177;BME280;20450;49.074;9.158;2023-06-19T01:00:15;99238.25;;;23.28;55.24
34177;BME280;20450;49.074;9.158;2023-06-19T01:02:42;99245.22;;;23.39;56.64
34177;BME280;20450;49.074;9.158;2023-06-19T01:05:09;99264.06;;;23.45;56.05
34177;BME280;20450;49.074;9.158;2023-06-19T01:07:44;99268.50;;;23.33;56.39
34177;BME280;20450;49.074;9.158;2023-06-19T01:10:17;99283.56;;;23.21;52.56
34177;BME280;20450;49.074;9.158;2023-06-19T01:12:52;99281.75;;;23.31;50.87
34177;BME280;20450;49.074;9.158;2023-06-19T01:15:25;99281.63;;;23.08;50.99
34177;BME280;20450;49.074;9.158;2023-06-19T01:17:55;99286.31;;;23.21;50.40
34177;BME280;20450;49.074;9.158;2023-06-19T01:20:24;99281.06;;;23.39;49.29
34177;BME280;20450;49.074;9.158;2023-06-19T01:22:53;99278.38;;;23.61;48.39
34177;BME280;20450;49.074;9.158;2023-06-19T01:25:20;99281.81;;;23.80;47.64
34177;BME280;20450;49.074;9.158;2023-06-19T01:27:48;99289.53;;;23.91;47.69
34177;BME280;20450;49.074;9.158;2023-06-19T01:30:15;99283.03;;;24.01;47.56
34177;BME280;20450;49.074;9.158;2023-06-19T01:32:50;99291.41;;;23.96;47.57
34177;BME280;20450;49.074;9.158;2023-06-19T01:35:25;99283.41;;;23.94;48.11
34177;BME280;20450;49.074;9.158;2023-06-19T01:37:59;99293.38;;;23.95;48.24
34177;BME280;20450;49.074;9.158;2023-06-19T01:40:29;99290.78;;;23.99;48.09
34177;BME280;20450;49.074;9.158;2023-06-19T01:42:59;99282.31;;;23.95;48.91
34177;BME280;20450;49.074;9.158;2023-06-19T01:45:29;99294.88;;;24.01;48.44
34177;BME280;20450;49.074;9.158;2023-06-19T01:47:59;99296.41;;;24.07;48.73
34177;BME280;20450;49.074;9.158;2023-06-19T01:50:27;99291.69;;;24.08;48.65
34177;BME280;20450;49.074;9.158;2023-06-19T01:52:54;99296.72;;;24.06;49.03
34177;BME280;20450;49.074;9.158;2023-06-19T01:55:23;99296.19;;;24.04;49.01
34177;BME280;20450;49.074;9.158;2023-06-19T01:57:50;99290.88;;;24.07;49.14
34177;BME280;20450;49.074;9.158;2023-06-19T02:00:21;99292.91;;;24.02;49.21
34177;BME280;20450;49.074;9.158;2023-06-19T02:02:58;99297.03;;;24.04;49.45
34177;BME280;20450;49.074;9.158;2023-06-19T02:05:28;99288.53;;;24.01;49.65
34177;BME280;20450;49.074;9.158;2023-06-19T02:08:01;99293.44;;;24.04;49.97
34177;BME280;20450;49.074;9.158;2023-06-19T02:10:29;99291.69;;;24.08;50.05
34177;BME280;20450;49.074;9.158;2023-06-19T02:12:57;99288.53;;;24.01;50.50
34177;BME280;20450;49.074;9.158;2023-06-19T02:15:24;99294.56;;;24.03;50.56
34177;BME280;20450;49.074;9.158;2023-06-19T02:17:51;99288.13;;;24.07;50.64
34177;BME280;20450;49.074;9.158;2023-06-19T02:20:18;99287.50;;;24.10;50.38
34177;BME280;20450;49.074;9.158;2023-06-19T02:22:45;99286.88;;;24.13;50.55
34177;BME280;20450;49.074;9.158;2023-06-19T02:25:12;99286.72;;;24.18;50.43
34177;BME280;20450;49.074;9.158;2023-06-19T02:27:44;99287.03;;;24.17;50.88
34177;BME280;20450;49.074;9.158;2023-06-19T02:30:11;99280.31;;;24.09;51.16
34177;BME280;20450;49.074;9.158;2023-06-19T02:32:39;99284.25;;;23.95;51.53
34177;BME280;20450;49.074;9.158;2023-06-19T02:35:10;99278.94;;;23.98;51.65
34177;BME280;20450;49.074;9.158;2023-06-19T02:37:37;99275.06;;;23.86;52.04
34177;BME280;20450;49.074;9.158;2023-06-19T02:40:08;99278.59;;;23.51;53.19
34177;BME280;20450;49.074;9.158;2023-06-19T02:42:36;99282.38;;;23.41;53.73
34177;BME280;20450;49.074;9.158;2023-06-19T02:45:06;99290.25;;;23.48;53.62
34177;BME280;20450;49.074;9.158;2023-06-19T02:47:35;99294.84;;;23.39;53.69
34177;BME280;20450;49.074;9.158;2023-06-19T02:50:05;99298.69;;;23.51;53.96
34177;BME280;20450;49.074;9.158;2023-06-19T02:52:33;99292.47;;;23.59;54.46
34177;BME280;20450;49.074;9.158;2023-06-19T02:55:00;99302.78;;;23.54;55.54
34177;BME280;20450;49.074;9.158;2023-06-19T02:57:29;99303.28;;;23.56;55.55
34177;BME280;20450;49.074;9.158;2023-06-19T02:59:57;99306.16;;;23.64;55.60
34177;BME280;20450;49.074;9.158;2023-06-19T03:02:26;99316.97;;;23.74;56.38
34177;BME280;20450;49.074;9.158;2023-06-19T03:04:53;99329.84;;;23.79;57.07
34177;BME280;20450;49.074;9.158;2023-06-19T03:07:22;99329.63;;;23.75;58.23
34177;BME280;20450;49.074;9.158;2023-06-19T03:10:01;99326.25;;;23.65;58.02
34177;BME280;20450;49.074;9.158;2023-06-19T03:12:54;99337.91;;;23.62;58.63
34177;BME280;20450;49.074;9.158;2023-06-19T03:15:25;99334.03;;;23.63;59.68
34177;BME280;20450;49.074;9.158;2023-06-19T03:18:24;99351.81;;;23.57;59.92
34177;BME280;20450;49.074;9.158;2023-06-19T03:20:54;99340.88;;;23.52;59.79
34177;BME280;20450;49.074;9.158;2023-06-19T03:23:25;99346.09;;;23.53;60.32
34177;BME280;20450;49.074;9.158;2023-06-19T03:26:06;99353.97;;;23.46;60.44
34177;BME280;20450;49.074;9.158;2023-06-19T03:28:42;99362.22;;;23.33;61.01
34177;BME280;20450;49.074;9.158;2023-06-19T03:31:09;99361.09;;;23.34;60.69
34177;BME280;20450;49.074;9.158;2023-06-19T03:33:38;99362.53;;;23.12;60.64
34177;BME280;20450;49.074;9.158;2023-06-19T03:36:07;99370.25;;;22.46;63.44
34177;BME280;20450;49.074;9.158;2023-06-19T03:38:52;99374.63;;;22.10;65.33
34177;BME280;20450;49.074;9.158;2023-06-19T03:41:48;99379.59;;;22.08;64.53
34177;BME280;20450;49.074;9.158;2023-06-19T03:44:15;99383.94;;;22.14;65.33
34177;BME280;20450;49.074;9.158;2023-06-19T03:46:43;99380.59;;;22.36;65.08
34177;BME280;20450;49.074;9.158;2023-06-19T03:49:38;99385.22;;;22.59;64.86
34177;BME280;20450;49.074;9.158;2023-06-19T03:52:05;99371.91;;;22.66;64.64
34177;BME280;20450;49.074;9.158;2023-06-19T03:54:34;99390.94;;;22.81;65.50
34177;BME280;20450;49.074;9.158;2023-06-19T03:57:01;99397.97;;;22.87;65.92
34177;BME280;20450;49.074;9.158;2023-06-19T04:02:52;99396.53;;;22.57;67.06
34177;BME280;20450;49.074;9.158;2023-06-19T04:05:21;99388.13;;;22.30;68.23
34177;BME280;20450;49.074;9.158;2023-06-19T04:07:48;99385.41;;;22.07;67.22
34177;BME280;20450;49.074;9.158;2023-06-19T04:10:27;99384.09;;;22.23;67.08
34177;BME280;20450;49.074;9.158;2023-06-19T04:12:54;99394.06;;;22.37;66.41
34177;BME280;20450;49.074;9.158;2023-06-19T04:18:41;99411.72;;;22.73;65.94
34177;BME280;20450;49.074;9.158;2023-06-19T04:21:11;99407.38;;;22.86;65.79
34177;BME280;20450;49.074;9.158;2023-06-19T04:23:38;99405.88;;;22.93;65.24
34177;BME280;20450;49.074;9.158;2023-06-19T04:26:05;99409.16;;;22.95;64.86
34177;BME280;20450;49.074;9.158;2023-06-19T04:28:42;99413.09;;;22.89;64.92
34177;BME280;20450;49.074;9.158;2023-06-19T04:31:09;99411.25;;;22.85;65.19
34177;BME280;20450;49.074;9.158;2023-06-19T04:33:36;99418.97;;;23.01;65.24
34177;BME280;20450;49.074;9.158;2023-06-19T04:36:04;99430.63;;;23.12;64.87
34177;BME280;20450;49.074;9.158;2023-06-19T04:38:33;99421.25;;;23.13;65.01
34177;BME280;20450;49.074;9.158;2023-06-19T04:44:43;99427.88;;;23.12;64.41
34177;BME280;20450;49.074;9.158;2023-06-19T04:47:10;99417.34;;;23.33;64.64
34177;BME280;20450;49.074;9.158;2023-06-19T04:49:38;99414.50;;;23.51;64.63
34177;BME280;20450;49.074;9.158;2023-06-19T04:52:05;99432.91;;;23.69;64.34
34177;BME280;20450;49.074;9.158;2023-06-19T04:54:34;99434.34;;;23.80;63.29
34177;BME280;20450;49.074;9.158;2023-06-19T04:57:01;99442.94;;;23.92;62.15
34177;BME280;20450;49.074;9.158;2023-06-19T04:59:29;99440.97;;;23.93;61.83
34177;BME280;20450;49.074;9.158;2023-06-19T05:02:21;99450.66;;;23.63;60.67
34177;BME280;20450;49.074;9.158;2023-06-19T05:04:49;99438.94;;;23.58;61.20
34177;BME280;20450;49.074;9.158;2023-06-19T05:07:16;99442.63;;;23.67;61.15
34177;BME280;20450;49.074;9.158;2023-06-19T05:09:45;99445.56;;;23.84;60.81
34177;BME280;20450;49.074;9.158;2023-06-19T05:12:12;99452.78;;;23.98;60.40
34177;BME280;20450;49.074;9.158;2023-06-19T05:14:40;99456.03;;;24.14;59.74
34177;BME280;20450;49.074;9.158;2023-06-19T05:17:07;99454.09;;;24.28;60.93
34177;BME280;20450;49.074;9.158;2023-06-19T05:19:34;99462.16;;;24.38;60.60
34177;BME280;20450;49.074;9.158;2023-06-19T05:22:01;99462.16;;;24.38;61.00
34177;BME280;20450;49.074;9.158;2023-06-19T05:24:28;99470.34;;;24.43;60.48
34177;BME280;20450;49.074;9.158;2023-06-19T05:26:57;99467.13;;;24.49;60.88
34177;BME280;20450;49.074;9.158;2023-06-19T05:29:24;99471.72;;;24.54;60.78
34177;BME280;20450;49.074;9.158;2023-06-19T05:31:52;99468.97;;;24.54;60.43
34177;BME280;20450;49.074;9.158;2023-06-19T05:34:19;99474.59;;;24.62;60.14
34177;BME280;20450;49.074;9.158;2023-06-19T05:36:46;99484.00;;;24.75;59.68
34177;BME280;20450;49.074;9.158;2023-06-19T05:39:13;99464.19;;;24.46;60.24
34177;BME280;20450;49.074;9.158;2023-06-19T05:41:41;99467.91;;;24.28;60.19
34177;BME280;20450;49.074;9.158;2023-06-19T05:44:09;99461.78;;;24.17;60.52
34177;BME280;20450;49.074;9.158;2023-06-19T05:46:36;99467.06;;;24.41;60.41
34177;BME280;20450;49.074;9.158;2023-06-19T05:49:03;99462.34;;;24.55;57.82
34177;BME280;20450;49.074;9.158;2023-06-19T05:51:31;99465.97;;;24.77;56.90
34177;BME280;20450;49.074;9.158;2023-06-19T05:53:58;99467.94;;;24.99;56.58
34177;BME280;20450;49.074;9.158;2023-06-19T05:56:25;99469.66;;;25.09;56.70
34177;BME280;20450;49.074;9.158;2023-06-19T05:58:52;99462.88;;;25.15;56.50
34177;BME280;20450;49.074;9.158;2023-06-19T06:01:22;99464.56;;;25.02;56.17
34177;BME280;20450;49.074;9.158;2023-06-19T06:03:52;99472.44;;;25.09;56.80
34177;BME280;20450;49.074;9.158;2023-06-19T06:06:19;99468.81;;;24.86;57.54
34177;BME280;20450;49.074;9.158;2023-06-19T06:08:46;99466.31;;;25.20;56.62
34177;BME280;20450;49.074;9.158;2023-06-19T06:11:13;99458.72;;;25.78;54.49
34177;BME280;20450;49.074;9.158;2023-06-19T06:13:40;99476.00;;;26.88;52.17
34177;BME280;20450;49.074;9.158;2023-06-19T06:16:07;99477.34;;;27.96;49.01
34177;BME280;20450;49.074;9.158;2023-06-19T06:18:37;99481.69;;;27.51;47.85
34177;BME280;20450;49.074;9.158;2023-06-19T06:21:04;99471.31;;;27.94;49.17
34177;BME280;20450;49.074;9.158;2023-06-19T06:23:31;99478.16;;;26.34;51.36
34177;BME280;20450;49.074;9.158;2023-06-19T06:26:00;99477.19;;;26.30;50.85
34177;BME280;20450;49.074;9.158;2023-06-19T06:28:27;99479.25;;;26.16;51.70
34177;BME280;20450;49.074;9.158;2023-06-19T06:30:54;99482.34;;;27.31;49.42
34177;BME280;20450;49.074;9.158;2023-06-19T06:33:22;99481.84;;;28.46;45.77
34177;BME280;20450;49.074;9.158;2023-06-19T06:35:50;99496.41;;;29.34;43.94
34177;BME280;20450;49.074;9.158;2023-06-19T06:38:17;99489.88;;;29.95;42.18
34177;BME280;20450;49.074;9.158;2023-06-19T06:40:45;99494.72;;;29.74;43.02
34177;BME280;20450;49.074;9.158;2023-06-19T06:43:13;99488.31;;;30.30;41.13
34177;BME280;20450;49.074;9.158;2023-06-19T06:45:40;99485.06;;;30.53;41.25
34177;BME280;20450;49.074;9.158;2023-06-19T06:48:07;99489.09;;;31.31;38.92
34177;BME280;20450;49.074;9.158;2023-06-19T06:50:34;99486.06;;;31.36;39.39
34177;BME280;20450;49.074;9.158;2023-06-19T06:53:03;99495.66;;;31.11;39.61
34177;BME280;20450;49.074;9.158;2023-06-19T06:55:30;99499.81;;;30.77;39.79
34177;BME280;20450;49.074;9.158;2023-06-19T06:57:57;99502.59;;;30.65;39.97
34177;BME280;20450;49.074;9.158;2023-06-19T07:00:24;99512.47;;;30.51;40.39
34177;BME280;20450;49.074;9.158;2023-06-19T07:02:52;99516.19;;;30.30;40.99
34177;BME280;20450;49.074;9.158;2023-06-19T07:05:20;99517.59;;;30.49;41.15
34177;BME280;20450;49.074;9.158;2023-06-19T07:07:48;99519.66;;;30.88;40.19
34177;BME280;20450;49.074;9.158;2023-06-19T07:10:16;99520.81;;;30.87;39.01
34177;BME280;20450;49.074;9.158;2023-06-19T07:12:44;99521.06;;;30.46;40.19
34177;BME280;20450;49.074;9.158;2023-06-19T07:15:12;99518.16;;;30.30;40.82
34177;BME280;20450;49.074;9.158;2023-06-19T07:17:39;99518.97;;;30.30;40.64
34177;BME280;20450;49.074;9.158;2023-06-19T07:20:07;99522.88;;;30.17;41.07
34177;BME280;20450;49.074;9.158;2023-06-19T07:22:35;99522.81;;;29.81;41.51
34177;BME280;20450;49.074;9.158;2023-06-19T07:25:04;99527.22;;;29.82;42.07
34177;BME280;20450;49.074;9.158;2023-06-19T07:27:33;99523.19;;;29.59;42.46
34177;BME280;20450;49.074;9.158;2023-06-19T07:30:00;99530.81;;;29.50;42.07
34177;BME280;20450;49.074;9.158;2023-06-19T07:32:28;99529.38;;;29.44;42.78
34177;BME280;20450;49.074;9.158;2023-06-19T07:34:57;99538.75;;;29.40;42.58
34177;BME280;20450;49.074;9.158;2023-06-19T07:37:24;99536.56;;;29.45;43.11
34177;BME280;20450;49.074;9.158;2023-06-19T07:39:51;99535.88;;;29.69;42.92
34177;BME280;20450;49.074;9.158;2023-06-19T07:42:19;99539.81;;;30.12;40.61
34177;BME280;20450;49.074;9.158;2023-06-19T07:44:47;99534.19;;;30.45;40.60
34177;BME280;20450;49.074;9.158;2023-06-19T07:47:17;99528.75;;;30.61;41.63
34177;BME280;20450;49.074;9.158;2023-06-19T07:49:44;99531.53;;;30.73;39.31
34177;BME280;20450;49.074;9.158;2023-06-19T07:52:14;99532.94;;;30.79;39.19
34177;BME280;20450;49.074;9.158;2023-06-19T07:54:50;99528.25;;;30.59;39.21
34177;BME280;20450;49.074;9.158;2023-06-19T07:57:18;99532.56;;;30.56;40.14
34177;BME280;20450;49.074;9.158;2023-06-19T07:59:45;99527.91;;;30.60;40.69
34177;BME280;20450;49.074;9.158;2023-06-19T08:02:16;99530.22;;;30.94;39.84
34177;BME280;20450;49.074;9.158;2023-06-19T08:04:45;99528.63;;;31.33;38.48
34177;BME280;20450;49.074;9.158;2023-06-19T08:07:12;99534.31;;;31.64;37.88
34177;BME280;20450;49.074;9.158;2023-06-19T08:09:39;99527.22;;;31.66;37.57
34177;BME280;20450;49.074;9.158;2023-06-19T08:12:08;99533.28;;;31.41;37.72
34177;BME280;20450;49.074;9.158;2023-06-19T08:14:35;99532.16;;;31.06;38.23
34177;BME280;20450;49.074;9.158;2023-06-19T08:17:04;99536.53;;;30.79;38.66
34177;BME280;20450;49.074;9.158;2023-06-19T08:19:31;99542.91;;;30.43;39.63
34177;BME280;20450;49.074;9.158;2023-06-19T08:21:58;99544.75;;;30.27;39.88
34177;BME280;20450;49.074;9.158;2023-06-19T08:24:25;99548.44;;;30.19;40.07
34177;BME280;20450;49.074;9.158;2023-06-19T08:26:52;99546.13;;;30.21;40.34
34177;BME280;20450;49.074;9.158;2023-06-19T08:29:19;99542.03;;;30.07;40.38
34177;BME280;20450;49.074;9.158;2023-06-19T08:31:46;99542.69;;;29.92;40.46
34177;BME280;20450;49.074;9.158;2023-06-19T08:34:16;99547.00;;;30.01;40.28
34177;BME280;20450;49.074;9.158;2023-06-19T08:36:44;99542.88;;;30.19;40.02
34177;BME280;20450;49.074;9.158;2023-06-19T08:39:11;99543.59;;;30.40;40.05
34177;BME280;20450;49.074;9.158;2023-06-19T08:41:39;99532.22;;;30.70;38.73
34177;BME280;20450;49.074;9.158;2023-06-19T08:44:06;99538.41;;;30.75;38.17
34177;BME280;20450;49.074;9.158;2023-06-19T08:46:34;99531.66;;;30.76;38.52
34177;BME280;20450;49.074;9.158;2023-06-19T08:49:01;99533.94;;;30.98;38.89
34177;BME280;20450;49.074;9.158;2023-06-19T08:51:29;99534.31;;;30.73;38.86
34177;BME280;20450;49.074;9.158;2023-06-19T08:54:02;99534.31;;;30.61;39.07
34177;BME280;20450;49.074;9.158;2023-06-19T08:56:31;99527.34;;;30.42;39.15
34177;BME280;20450;49.074;9.158;2023-06-19T08:59:07;99520.81;;;30.63;38.82
34177;BME280;20450;49.074;9.158;2023-06-19T09:01:35;99530.59;;;30.32;39.35
34177;BME280;20450;49.074;9.158;2023-06-19T09:04:10;99524.78;;;30.50;39.68
34177;BME280;20450;49.074;9.158;2023-06-19T09:06:47;99524.56;;;30.67;40.05
34177;BME280;20450;49.074;9.158;2023-06-19T09:09:15;99530.69;;;30.36;39.56
34177;BME280;20450;49.074;9.158;2023-06-19T09:11:43;99537.78;;;30.21;40.71
34177;BME280;20450;49.074;9.158;2023-06-19T09:14:10;99539.63;;;30.41;40.70
34177;BME280;20450;49.074;9.158;2023-06-19T09:16:39;99522.69;;;30.59;40.22
34177;BME280;20450;49.074;9.158;2023-06-19T09:19:07;99520.38;;;30.49;40.06
34177;BME280;20450;49.074;9.158;2023-06-19T09:21:36;99524.31;;;30.60;40.94
34177;BME280;20450;49.074;9.158;2023-06-19T09:24:07;99513.66;;;30.74;40.40
34177;BME280;20450;49.074;9.158;2023-06-19T09:26:36;99527.91;;;30.60;40.09
34177;BME280;20450;49.074;9.158;2023-06-19T09:29:12;99532.94;;;30.79;38.72
34177;BME280;20450;49.074;9.158;2023-06-19T09:31:42;99525.00;;;30.69;39.92
34177;BME280;20450;49.074;9.158;2023-06-19T09:34:09;99529.19;;;30.63;38.80
34177;BME280;20450;49.074;9.158;2023-06-19T09:36:37;99531.19;;;30.50;39.04
34177;BME280;20450;49.074;9.158;2023-06-19T09:39:07;99534.88;;;30.54;39.70
34177;BME280;20450;49.074;9.158;2023-06-19T09:41:36;99524.28;;;30.96;39.09
34177;BME280;20450;49.074;9.158;2023-06-19T09:44:07;99523.91;;;31.09;38.81
34177;BME280;20450;49.074;9.158;2023-06-19T09:46:36;99525.84;;;30.81;38.70
34177;BME280;20450;49.074;9.158;2023-06-19T09:49:06;99530.28;;;31.22;38.48
34177;BME280;20450;49.074;9.158;2023-06-19T09:51:37;99524.59;;;31.30;38.37
34177;BME280;20450;49.074;9.158;2023-06-19T09:54:10;99518.19;;;31.18;38.94
34177;BME280;20450;49.074;9.158;2023-06-19T09:56:38;99520.19;;;31.17;41.29
34177;BME280;20450;49.074;9.158;2023-06-19T09:59:06;99524.84;;;31.01;38.54
34177;BME280;20450;49.074;9.158;2023-06-19T10:01:35;99515.44;;;31.06;38.59
34177;BME280;20450;49.074;9.158;2023-06-19T10:04:07;99518.72;;;30.48;39.12
34177;BME280;20450;49.074;9.158;2023-06-19T10:06:43;99521.06;;;30.58;39.73
34177;BME280;20450;49.074;9.158;2023-06-19T10:09:14;99530.16;;;30.79;39.32
34177;BME280;20450;49.074;9.158;2023-06-19T10:12:12;99527.09;;;30.60;40.47
34177;BME280;20450;49.074;9.158;2023-06-19T10:15:09;99530.78;;;31.00;39.77
34177;BME280;20450;49.074;9.158;2023-06-19T10:17:52;99529.13;;;31.23;39.51
34177;BME280;20450;49.074;9.158;2023-06-19T10:20:29;99522.28;;;31.20;40.02
34177;BME280;20450;49.074;9.158;2023-06-19T10:23:06;99519.44;;;31.32;39.36
34177;BME280;20450;49.074;9.158;2023-06-19T10:25:38;99519.25;;;31.53;39.52
34177;BME280;20450;49.074;9.158;2023-06-19T10:28:45;99512.13;;;31.83;40.11
34177;BME280;20450;49.074;9.158;2023-06-19T10:31:41;99514.41;;;32.08;38.23
34177;BME280;20450;49.074;9.158;2023-06-19T10:34:09;99515.88;;;32.18;38.11
34177;BME280;20450;49.074;9.158;2023-06-19T10:36:36;99516.13;;;31.97;38.85
34177;BME280;20450;49.074;9.158;2023-06-19T10:39:04;99511.91;;;31.76;38.65
34177;BME280;20450;49.074;9.158;2023-06-19T10:41:34;99511.88;;;31.88;38.36
34177;BME280;20450;49.074;9.158;2023-06-19T10:44:03;99504.38;;;31.92;39.03
34177;BME280;20450;49.074;9.158;2023-06-19T10:46:35;99504.41;;;32.07;38.10
34177;BME280;20450;49.074;9.158;2023-06-19T10:49:04;99508.22;;;32.15;37.57
34177;BME280;20450;49.074;9.158;2023-06-19T10:51:34;99500.16;;;32.29;36.92
34177;BME280;20450;49.074;9.158;2023-06-19T10:54:03;99486.28;;;32.33;37.49
34177;BME280;20450;49.074;9.158;2023-06-19T10:56:31;99491.34;;;32.11;37.96
34177;BME280;20450;49.074;9.158;2023-06-19T10:59:02;99485.81;;;32.31;37.09
34177;BME280;20450;49.074;9.158;2023-06-19T11:01:34;99483.25;;;32.38;37.94
34177;BME280;20450;49.074;9.158;2023-06-19T11:04:05;99474.81;;;32.53;37.37
34177;BME280;20450;49.074;9.158;2023-06-19T11:06:34;99475.81;;;32.80;36.40
34177;BME280;20450;49.074;9.158;2023-06-19T11:09:02;99482.97;;;32.93;36.12
34177;BME280;20450;49.074;9.158;2023-06-19T11:11:35;99473.91;;;33.18;36.21
34177;BME280;20450;49.074;9.158;2023-06-19T11:14:07;99464.94;;;33.47;35.20
34177;BME280;20450;49.074;9.158;2023-06-19T11:16:40;99472.91;;;33.45;35.21
34177;BME280;20450;49.074;9.158;2023-06-19T11:19:13;99469.94;;;33.57;34.38
34177;BME280;20450;49.074;9.158;2023-06-19T11:21:45;99464.41;;;33.61;34.58
34177;BME280;20450;49.074;9.158;2023-06-19T11:24:15;99460.13;;;33.10;35.05
34177;BME280;20450;49.074;9.158;2023-06-19T11:26:44;99465.56;;;32.68;35.88
34177;BME280;20450;49.074;9.158;2023-06-19T11:29:15;99463.09;;;32.48;36.12
34177;BME280;20450;49.074;9.158;2023-06-19T11:31:44;99459.94;;;32.34;36.83
34177;BME280;20450;49.074;9.158;2023-06-19T11:34:11;99464.91;;;32.40;37.36
34177;BME280;20450;49.074;9.158;2023-06-19T11:37:12;99468.69;;;32.63;37.50
34177;BME280;20450;49.074;9.158;2023-06-19T11:39:52;99469.78;;;32.43;36.55
34177;BME280;20450;49.074;9.158;2023-06-19T11:42:20;99460.78;;;32.18;37.09
34177;BME280;20450;49.074;9.158;2023-06-19T11:44:55;99452.47;;;32.22;36.42
34177;BME280;20450;49.074;9.158;2023-06-19T11:47:24;99448.75;;;32.34;36.28
34177;BME280;20450;49.074;9.158;2023-06-19T11:49:51;99455.56;;;32.67;36.12
34177;BME280;20450;49.074;9.158;2023-06-19T11:52:18;99458.28;;;33.17;35.04
34177;BME280;20450;49.074;9.158;2023-06-19T11:54:47;99458.75;;;33.38;35.04
34177;BME280;20450;49.074;9.158;2023-06-19T11:57:15;99451.59;;;33.22;34.67
34177;BME280;20450;49.074;9.158;2023-06-19T11:59:42;99457.31;;;33.67;34.25
34177;BME280;20450;49.074;9.158;2023-06-19T12:02:14;99460.88;;;33.64;34.58
34177;BME280;20450;49.074;9.158;2023-06-19T12:04:47;99454.31;;;33.56;34.74
34177;BME280;20450;49.074;9.158;2023-06-19T12:07:14;99454.16;;;33.30;34.90
34177;BME280;20450;49.074;9.158;2023-06-19T12:09:41;99457.91;;;33.19;35.88
34177;BME280;20450;49.074;9.158;2023-06-19T12:12:09;99459.13;;;33.37;35.67
34177;BME280;20450;49.074;9.158;2023-06-19T12:14:39;99456.81;;;33.04;35.57
34177;BME280;20450;49.074;9.158;2023-06-19T12:17:08;99454.09;;;33.27;35.53
34177;BME280;20450;49.074;9.158;2023-06-19T12:19:36;99448.56;;;32.92;35.68
34177;BME280;20450;49.074;9.158;2023-06-19T12:22:04;99451.66;;;32.87;35.85
34177;BME280;20450;49.074;9.158;2023-06-19T12:24:31;99444.66;;;33.16;35.59
34177;BME280;20450;49.074;9.158;2023-06-19T12:26:59;99445.69;;;33.27;34.74
34177;BME280;20450;49.074;9.158;2023-06-19T12:29:27;99438.06;;;33.65;33.70
34177;BME280;20450;49.074;9.158;2023-06-19T12:31:59;99437.22;;;33.42;33.95
34177;BME280;20450;49.074;9.158;2023-06-19T12:34:27;99434.56;;;33.11;34.32
34177;BME280;20450;49.074;9.158;2023-06-19T12:36:58;99431.44;;;32.78;34.60
34177;BME280;20450;49.074;9.158;2023-06-19T12:39:26;99433.47;;;32.62;34.35
34177;BME280;20450;49.074;9.158;2023-06-19T12:41:53;99431.13;;;32.64;34.60
34177;BME280;20450;49.074;9.158;2023-06-19T12:44:21;99428.38;;;32.33;35.47
34177;BME280;20450;49.074;9.158;2023-06-19T12:46:49;99431.38;;;32.40;34.85
34177;BME280;20450;49.074;9.158;2023-06-19T12:49:21;99430.47;;;32.36;36.14
34177;BME280;20450;49.074;9.158;2023-06-19T12:51:49;99426.41;;;32.18;36.41
34177;BME280;20450;49.074;9.158;2023-06-19T12:54:17;99429.13;;;32.14;36.11
34177;BME280;20450;49.074;9.158;2023-06-19T12:56:44;99424.63;;;31.94;37.02
34177;BME280;20450;49.074;9.158;2023-06-19T12:59:12;99426.69;;;31.82;37.35
34177;BME280;20450;49.074;9.158;2023-06-19T13:01:41;99424.38;;;31.84;37.23
34177;BME280;20450;49.074;9.158;2023-06-19T13:04:08;99418.13;;;31.90;37.51
34177;BME280;20450;49.074;9.158;2023-06-19T13:06:36;99418.59;;;32.08;37.21
34177;BME280;20450;49.074;9.158;2023-06-19T13:09:04;99419.84;;;31.95;37.57
34177;BME280;20450;49.074;9.158;2023-06-19T13:11:33;99422.63;;;31.95;37.36
34177;BME280;20450;49.074;9.158;2023-06-19T13:14:01;99413.34;;;31.32;37.79
34177;BME280;20450;49.074;9.158;2023-06-19T13:16:28;99407.66;;;31.72;37.40
34177;BME280;20450;49.074;9.158;2023-06-19T13:19:06;99406.47;;;31.73;37.57
34177;BME280;20450;49.074;9.158;2023-06-19T13:21:33;99410.22;;;31.06;39.20
34177;BME280;20450;49.074;9.158;2023-06-19T13:24:00;99399.63;;;30.72;40.22